sensor_id;sensor_type;location;lat;lon;timestamp;P1;durP1;ratioP1;P2;durP2;ratioP2
27313;SDS011;14800;48.174;9.798;2022-10-16T00:00:39;3.10;;;2.80;;
27313;SDS011;14800;48.174;9.798;2022-10-16T00:03:06;2.70;;;2.50;;
27313;SDS011;14800;48.174;9.798;2022-10-16T00:05:32;3.00;;;2.60;;
27313;SDS011;14800;48.174;9.798;2022-10-16T00:08:02;2.92;;;2.60;;
27313;SDS011;14800;48.174;9.798;2022-10-16T00:10:28;3.45;;;2.85;;
27313;SDS011;14800;48.174;9.798;2022-10-16T00:12:54;3.85;;;2.60;;
27313;SDS011;14800;48.174;9.798;2022-10-16T00:15:19;3.22;;;2.38;;
27313;SDS011;14800;48.174;9.798;2022-10-16T00:17:45;2.60;;;2.40;;
27313;SDS011;14800;48.174;9.798;2022-10-16T00:20:10;4.38;;;2.78;;
27313;SDS011;14800;48.174;9.798;2022-10-16T00:22:36;2.63;;;2.42;;
27313;SDS011;14800;48.174;9.798;2022-10-16T00:25:02;2.55;;;2.30;;
27313;SDS011;14800;48.174;9.798;2022-10-16T00:27:27;3.47;;;2.80;;
27313;SDS011;14800;48.174;9.798;2022-10-16T00:29:53;6.97;;;2.97;;
27313;SDS011;14800;48.174;9.798;2022-10-16T00:32:19;3.05;;;2.75;;
27313;SDS011;14800;48.174;9.798;2022-10-16T00:34:45;4.78;;;2.58;;
27313;SDS011;14800;48.174;9.798;2022-10-16T00:37:11;2.90;;;2.30;;
27313;SDS011;14800;48.174;9.798;2022-10-16T00:39:38;4.22;;;2.03;;
27313;SDS011;14800;48.174;9.798;2022-10-16T00:42:04;4.70;;;2.35;;
27313;SDS011;14800;48.174;9.798;2022-10-16T00:50:10;2.60;;;2.00;;
27313;SDS011;14800;48.174;9.798;2022-10-16T00:52:42;2.15;;;1.95;;
27313;SDS011;14800;48.174;9.798;2022-10-16T00:55:11;2.03;;;1.92;;
27313;SDS011;14800;48.174;9.798;2022-10-16T00:57:36;2.08;;;1.85;;
27313;SDS011;14800;48.174;9.798;2022-10-16T01:00:05;5.05;;;2.10;;
27313;SDS011;14800;48.174;9.798;2022-10-16T01:02:33;3.15;;;1.90;;
27313;SDS011;14800;48.174;9.798;2022-10-16T01:04:59;3.35;;;1.70;;
27313;SDS011;14800;48.174;9.798;2022-10-16T01:15:23;3.88;;;1.77;;
27313;SDS011;14800;48.174;9.798;2022-10-16T01:18:08;2.33;;;1.60;;
27313;SDS011;14800;48.174;9.798;2022-10-16T01:20:53;5.22;;;1.63;;
27313;SDS011;14800;48.174;9.798;2022-10-16T01:28:41;3.45;;;1.63;;
27313;SDS011;14800;48.174;9.798;2022-10-16T01:31:15;2.33;;;2.13;;
27313;SDS011;14800;48.174;9.798;2022-10-16T01:33:56;2.15;;;1.90;;
27313;SDS011;14800;48.174;9.798;2022-10-16T01:36:29;2.63;;;1.90;;
27313;SDS011;14800;48.174;9.798;2022-10-16T01:39:01;3.53;;;1.88;;
27313;SDS011;14800;48.174;9.798;2022-10-16T01:41:30;4.50;;;1.83;;
27313;SDS011;14800;48.174;9.798;2022-10-16T01:44:06;4.40;;;2.05;;
27313;SDS011;14800;48.174;9.798;2022-10-16T01:46:39;3.05;;;1.52;;
27313;SDS011;14800;48.174;9.798;2022-10-16T01:49:07;2.15;;;1.92;;
27313;SDS011;14800;48.174;9.798;2022-10-16T01:51:35;1.98;;;1.88;;
27313;SDS011;14800;48.174;9.798;2022-10-16T01:54:01;2.47;;;1.50;;
27313;SDS011;14800;48.174;9.798;2022-10-16T01:56:29;2.78;;;1.55;;
27313;SDS011;14800;48.174;9.798;2022-10-16T01:58:57;3.28;;;2.05;;
27313;SDS011;14800;48.174;9.798;2022-10-16T02:01:26;3.83;;;1.65;;
27313;SDS011;14800;48.174;9.798;2022-10-16T02:03:55;2.17;;;1.92;;
27313;SDS011;14800;48.174;9.798;2022-10-16T02:06:23;4.55;;;1.95;;
27313;SDS011;14800;48.174;9.798;2022-10-16T02:08:50;5.80;;;1.80;;
27313;SDS011;14800;48.174;9.798;2022-10-16T02:11:16;2.25;;;2.03;;
27313;SDS011;14800;48.174;9.798;2022-10-16T02:13:44;2.33;;;2.00;;
27313;SDS011;14800;48.174;9.798;2022-10-16T02:16:13;2.13;;;1.92;;
27313;SDS011;14800;48.174;9.798;2022-10-16T02:18:39;2.60;;;2.00;;
27313;SDS011;14800;48.174;9.798;2022-10-16T02:21:17;3.60;;;1.88;;
27313;SDS011;14800;48.174;9.798;2022-10-16T02:23:56;2.25;;;1.88;;
27313;SDS011;14800;48.174;9.798;2022-10-16T02:26:35;2.45;;;1.80;;
27313;SDS011;14800;48.174;9.798;2022-10-16T02:29:11;6.60;;;2.00;;
27313;SDS011;14800;48.174;9.798;2022-10-16T02:31:41;2.78;;;1.95;;
27313;SDS011;14800;48.174;9.798;2022-10-16T02:34:12;3.00;;;1.83;;
27313;SDS011;14800;48.174;9.798;2022-10-16T02:36:39;1.80;;;1.60;;
27313;SDS011;14800;48.174;9.798;2022-10-16T02:39:06;3.08;;;2.10;;
27313;SDS011;14800;48.174;9.798;2022-10-16T02:41:33;1.63;;;1.52;;
27313;SDS011;14800;48.174;9.798;2022-10-16T02:43:59;2.60;;;1.75;;
27313;SDS011;14800;48.174;9.798;2022-10-16T02:46:24;2.35;;;2.00;;
27313;SDS011;14800;48.174;9.798;2022-10-16T02:48:50;4.07;;;1.90;;
27313;SDS011;14800;48.174;9.798;2022-10-16T02:51:15;2.85;;;1.55;;
27313;SDS011;14800;48.174;9.798;2022-10-16T02:53:41;6.68;;;1.95;;
27313;SDS011;14800;48.174;9.798;2022-10-16T02:56:06;2.10;;;1.90;;
27313;SDS011;14800;48.174;9.798;2022-10-16T02:58:32;3.20;;;1.92;;
27313;SDS011;14800;48.174;9.798;2022-10-16T03:00:58;2.42;;;1.77;;
27313;SDS011;14800;48.174;9.798;2022-10-16T03:03:23;3.15;;;1.70;;
27313;SDS011;14800;48.174;9.798;2022-10-16T03:05:49;2.15;;;1.65;;
27313;SDS011;14800;48.174;9.798;2022-10-16T03:08:14;2.85;;;1.92;;
27313;SDS011;14800;48.174;9.798;2022-10-16T03:10:40;2.22;;;2.10;;
27313;SDS011;14800;48.174;9.798;2022-10-16T03:13:06;2.78;;;2.13;;
27313;SDS011;14800;48.174;9.798;2022-10-16T03:15:32;2.60;;;1.98;;
27313;SDS011;14800;48.174;9.798;2022-10-16T03:17:57;3.05;;;1.80;;
27313;SDS011;14800;48.174;9.798;2022-10-16T03:20:23;2.17;;;1.80;;
27313;SDS011;14800;48.174;9.798;2022-10-16T03:22:49;5.18;;;1.90;;
27313;SDS011;14800;48.174;9.798;2022-10-16T03:25:15;2.47;;;1.67;;
27313;SDS011;14800;48.174;9.798;2022-10-16T03:27:41;1.67;;;1.58;;
27313;SDS011;14800;48.174;9.798;2022-10-16T03:30:07;2.58;;;1.90;;
27313;SDS011;14800;48.174;9.798;2022-10-16T03:32:33;2.00;;;1.80;;
27313;SDS011;14800;48.174;9.798;2022-10-16T03:34:58;5.35;;;1.73;;
27313;SDS011;14800;48.174;9.798;2022-10-16T03:37:24;3.17;;;2.10;;
27313;SDS011;14800;48.174;9.798;2022-10-16T03:39:50;3.63;;;2.00;;
27313;SDS011;14800;48.174;9.798;2022-10-16T03:42:15;2.45;;;1.88;;
27313;SDS011;14800;48.174;9.798;2022-10-16T03:44:41;3.63;;;2.30;;
27313;SDS011;14800;48.174;9.798;2022-10-16T03:47:07;10.40;;;2.30;;
27313;SDS011;14800;48.174;9.798;2022-10-16T03:49:32;3.58;;;1.80;;
27313;SDS011;14800;48.174;9.798;2022-10-16T03:51:58;1.98;;;1.88;;
27313;SDS011;14800;48.174;9.798;2022-10-16T03:54:23;2.63;;;1.77;;
27313;SDS011;14800;48.174;9.798;2022-10-16T03:56:49;3.83;;;1.80;;
27313;SDS011;14800;48.174;9.798;2022-10-16T03:59:14;2.60;;;2.05;;
27313;SDS011;14800;48.174;9.798;2022-10-16T04:01:40;4.10;;;1.63;;
27313;SDS011;14800;48.174;9.798;2022-10-16T04:04:05;3.53;;;2.20;;
27313;SDS011;14800;48.174;9.798;2022-10-16T04:06:31;2.58;;;1.85;;
27313;SDS011;14800;48.174;9.798;2022-10-16T04:08:57;3.28;;;1.90;;
27313;SDS011;14800;48.174;9.798;2022-10-16T04:11:22;4.53;;;2.10;;
27313;SDS011;14800;48.174;9.798;2022-10-16T04:13:48;2.80;;;2.40;;
27313;SDS011;14800;48.174;9.798;2022-10-16T04:16:13;4.13;;;2.80;;
27313;SDS011;14800;48.174;9.798;2022-10-16T04:18:39;3.70;;;2.33;;
27313;SDS011;14800;48.174;9.798;2022-10-16T04:21:05;5.22;;;2.67;;
27313;SDS011;14800;48.174;9.798;2022-10-16T04:23:31;4.32;;;2.75;;
27313;SDS011;14800;48.174;9.798;2022-10-16T04:25:58;6.05;;;3.20;;
27313;SDS011;14800;48.174;9.798;2022-10-16T04:28:24;3.47;;;2.95;;
27313;SDS011;14800;48.174;9.798;2022-10-16T04:30:49;5.20;;;3.10;;
27313;SDS011;14800;48.174;9.798;2022-10-16T04:33:15;3.95;;;2.80;;
27313;SDS011;14800;48.174;9.798;2022-10-16T04:35:41;5.63;;;3.20;;
27313;SDS011;14800;48.174;9.798;2022-10-16T04:38:06;4.88;;;3.05;;
27313;SDS011;14800;48.174;9.798;2022-10-16T04:40:32;6.68;;;3.10;;
27313;SDS011;14800;48.174;9.798;2022-10-16T04:42:58;6.78;;;2.97;;
27313;SDS011;14800;48.174;9.798;2022-10-16T04:45:24;4.13;;;2.97;;
27313;SDS011;14800;48.174;9.798;2022-10-16T04:47:49;3.25;;;2.92;;
27313;SDS011;14800;48.174;9.798;2022-10-16T04:50:15;5.38;;;2.88;;
27313;SDS011;14800;48.174;9.798;2022-10-16T04:52:41;7.68;;;3.10;;
27313;SDS011;14800;48.174;9.798;2022-10-16T04:55:06;3.67;;;3.00;;
27313;SDS011;14800;48.174;9.798;2022-10-16T04:57:32;4.72;;;2.95;;
27313;SDS011;14800;48.174;9.798;2022-10-16T04:59:58;5.75;;;3.95;;
27313;SDS011;14800;48.174;9.798;2022-10-16T05:02:24;6.35;;;4.20;;
27313;SDS011;14800;48.174;9.798;2022-10-16T05:04:50;5.60;;;4.95;;
27313;SDS011;14800;48.174;9.798;2022-10-16T05:07:16;8.02;;;6.55;;
27313;SDS011;14800;48.174;9.798;2022-10-16T05:09:42;7.60;;;6.63;;
27313;SDS011;14800;48.174;9.798;2022-10-16T05:12:07;18.77;;;13.93;;
27313;SDS011;14800;48.174;9.798;2022-10-16T05:14:33;15.88;;;12.50;;
27313;SDS011;14800;48.174;9.798;2022-10-16T05:16:59;11.35;;;7.90;;
27313;SDS011;14800;48.174;9.798;2022-10-16T05:19:25;7.63;;;6.25;;
27313;SDS011;14800;48.174;9.798;2022-10-16T05:21:51;7.88;;;5.13;;
27313;SDS011;14800;48.174;9.798;2022-10-16T05:24:16;6.13;;;4.35;;
27313;SDS011;14800;48.174;9.798;2022-10-16T05:26:42;5.07;;;4.03;;
27313;SDS011;14800;48.174;9.798;2022-10-16T05:29:07;7.28;;;5.60;;
27313;SDS011;14800;48.174;9.798;2022-10-16T05:31:34;9.50;;;6.40;;
27313;SDS011;14800;48.174;9.798;2022-10-16T05:34:00;8.85;;;4.40;;
27313;SDS011;14800;48.174;9.798;2022-10-16T05:36:25;4.90;;;3.70;;
27313;SDS011;14800;48.174;9.798;2022-10-16T05:38:51;4.95;;;3.50;;
27313;SDS011;14800;48.174;9.798;2022-10-16T05:41:17;6.07;;;3.42;;
27313;SDS011;14800;48.174;9.798;2022-10-16T05:43:49;4.78;;;3.78;;
27313;SDS011;14800;48.174;9.798;2022-10-16T05:46:15;4.88;;;3.53;;
27313;SDS011;14800;48.174;9.798;2022-10-16T05:48:41;3.63;;;3.33;;
27313;SDS011;14800;48.174;9.798;2022-10-16T05:51:07;4.35;;;3.50;;
27313;SDS011;14800;48.174;9.798;2022-10-16T05:53:36;3.28;;;2.85;;
27313;SDS011;14800;48.174;9.798;2022-10-16T05:56:03;3.20;;;2.85;;
27313;SDS011;14800;48.174;9.798;2022-10-16T05:58:31;3.33;;;3.03;;
27313;SDS011;14800;48.174;9.798;2022-10-16T06:00:59;3.85;;;3.10;;
27313;SDS011;14800;48.174;9.798;2022-10-16T06:03:26;6.95;;;3.08;;
27313;SDS011;14800;48.174;9.798;2022-10-16T06:05:52;3.65;;;3.13;;
27313;SDS011;14800;48.174;9.798;2022-10-16T06:08:19;3.35;;;3.05;;
27313;SDS011;14800;48.174;9.798;2022-10-16T06:10:46;3.85;;;2.67;;
27313;SDS011;14800;48.174;9.798;2022-10-16T06:13:12;7.55;;;5.63;;
27313;SDS011;14800;48.174;9.798;2022-10-16T06:15:39;13.65;;;9.27;;
27313;SDS011;14800;48.174;9.798;2022-10-16T06:18:07;10.10;;;7.47;;
27313;SDS011;14800;48.174;9.798;2022-10-16T06:20:36;9.15;;;6.82;;
27313;SDS011;14800;48.174;9.798;2022-10-16T06:23:02;10.20;;;7.60;;
27313;SDS011;14800;48.174;9.798;2022-10-16T06:25:29;16.17;;;11.18;;
27313;SDS011;14800;48.174;9.798;2022-10-16T06:27:56;18.50;;;10.80;;
27313;SDS011;14800;48.174;9.798;2022-10-16T06:30:21;18.60;;;11.60;;
27313;SDS011;14800;48.174;9.798;2022-10-16T06:32:47;11.50;;;8.88;;
27313;SDS011;14800;48.174;9.798;2022-10-16T06:35:13;10.00;;;8.20;;
27313;SDS011;14800;48.174;9.798;2022-10-16T06:37:38;6.90;;;5.85;;
27313;SDS011;14800;48.174;9.798;2022-10-16T06:40:04;8.02;;;5.68;;
27313;SDS011;14800;48.174;9.798;2022-10-16T06:42:30;8.00;;;6.25;;
27313;SDS011;14800;48.174;9.798;2022-10-16T06:44:56;16.05;;;11.82;;
27313;SDS011;14800;48.174;9.798;2022-10-16T06:47:21;15.23;;;10.27;;
27313;SDS011;14800;48.174;9.798;2022-10-16T06:49:47;11.30;;;8.32;;
27313;SDS011;14800;48.174;9.798;2022-10-16T06:52:12;7.72;;;6.35;;
27313;SDS011;14800;48.174;9.798;2022-10-16T06:54:38;7.30;;;6.03;;
27313;SDS011;14800;48.174;9.798;2022-10-16T06:57:03;9.05;;;6.82;;
27313;SDS011;14800;48.174;9.798;2022-10-16T06:59:29;7.95;;;6.30;;
27313;SDS011;14800;48.174;9.798;2022-10-16T07:01:54;9.70;;;6.10;;
27313;SDS011;14800;48.174;9.798;2022-10-16T07:04:20;6.20;;;5.45;;
27313;SDS011;14800;48.174;9.798;2022-10-16T07:06:46;11.85;;;7.90;;
27313;SDS011;14800;48.174;9.798;2022-10-16T07:09:11;8.23;;;6.68;;
27313;SDS011;14800;48.174;9.798;2022-10-16T07:11:38;7.43;;;5.55;;
27313;SDS011;14800;48.174;9.798;2022-10-16T07:14:05;8.27;;;5.43;;
27313;SDS011;14800;48.174;9.798;2022-10-16T07:19:05;5.32;;;3.70;;
27313;SDS011;14800;48.174;9.798;2022-10-16T07:21:31;3.78;;;3.13;;
27313;SDS011;14800;48.174;9.798;2022-10-16T07:24:01;3.20;;;2.70;;
27313;SDS011;14800;48.174;9.798;2022-10-16T07:26:29;3.15;;;2.85;;
27313;SDS011;14800;48.174;9.798;2022-10-16T07:28:57;3.30;;;2.50;;
27313;SDS011;14800;48.174;9.798;2022-10-16T07:31:23;3.75;;;2.10;;
27313;SDS011;14800;48.174;9.798;2022-10-16T07:33:49;2.90;;;2.10;;
27313;SDS011;14800;48.174;9.798;2022-10-16T07:36:16;2.08;;;1.83;;
27313;SDS011;14800;48.174;9.798;2022-10-16T07:38:43;2.30;;;1.73;;
27313;SDS011;14800;48.174;9.798;2022-10-16T07:41:10;1.90;;;1.80;;
27313;SDS011;14800;48.174;9.798;2022-10-16T07:43:44;4.78;;;2.53;;
27313;SDS011;14800;48.174;9.798;2022-10-16T07:46:14;4.00;;;2.67;;
27313;SDS011;14800;48.174;9.798;2022-10-16T07:48:41;3.45;;;2.33;;
27313;SDS011;14800;48.174;9.798;2022-10-16T07:51:10;3.88;;;2.83;;
27313;SDS011;14800;48.174;9.798;2022-10-16T07:53:36;4.72;;;2.60;;
27313;SDS011;14800;48.174;9.798;2022-10-16T07:56:05;2.83;;;2.40;;
27313;SDS011;14800;48.174;9.798;2022-10-16T07:58:32;3.42;;;2.35;;
27313;SDS011;14800;48.174;9.798;2022-10-16T08:01:02;2.55;;;2.35;;
27313;SDS011;14800;48.174;9.798;2022-10-16T08:03:29;3.83;;;2.22;;
27313;SDS011;14800;48.174;9.798;2022-10-16T08:05:56;2.60;;;2.20;;
27313;SDS011;14800;48.174;9.798;2022-10-16T08:08:22;2.95;;;2.13;;
27313;SDS011;14800;48.174;9.798;2022-10-16T08:10:48;3.80;;;2.50;;
27313;SDS011;14800;48.174;9.798;2022-10-16T08:13:14;2.00;;;1.52;;
27313;SDS011;14800;48.174;9.798;2022-10-16T08:15:41;5.10;;;2.20;;
27313;SDS011;14800;48.174;9.798;2022-10-16T08:18:08;2.33;;;1.67;;
27313;SDS011;14800;48.174;9.798;2022-10-16T08:20:34;2.72;;;1.60;;
27313;SDS011;14800;48.174;9.798;2022-10-16T08:23:00;1.95;;;1.70;;
27313;SDS011;14800;48.174;9.798;2022-10-16T08:25:26;7.50;;;1.70;;
27313;SDS011;14800;48.174;9.798;2022-10-16T08:27:52;1.67;;;1.58;;
27313;SDS011;14800;48.174;9.798;2022-10-16T08:30:18;2.70;;;1.88;;
27313;SDS011;14800;48.174;9.798;2022-10-16T08:32:45;3.33;;;2.05;;
27313;SDS011;14800;48.174;9.798;2022-10-16T08:35:12;3.85;;;2.00;;
27313;SDS011;14800;48.174;9.798;2022-10-16T08:37:39;2.88;;;1.90;;
27313;SDS011;14800;48.174;9.798;2022-10-16T08:40:06;2.08;;;1.80;;
27313;SDS011;14800;48.174;9.798;2022-10-16T08:45:20;3.55;;;1.88;;
27313;SDS011;14800;48.174;9.798;2022-10-16T08:50:28;4.75;;;1.90;;
27313;SDS011;14800;48.174;9.798;2022-10-16T08:52:56;3.72;;;1.60;;
27313;SDS011;14800;48.174;9.798;2022-10-16T08:58:10;3.85;;;1.60;;
27313;SDS011;14800;48.174;9.798;2022-10-16T09:00:39;3.40;;;1.58;;
27313;SDS011;14800;48.174;9.798;2022-10-16T09:03:25;3.20;;;1.75;;
27313;SDS011;14800;48.174;9.798;2022-10-16T09:06:20;2.75;;;1.90;;
27313;SDS011;14800;48.174;9.798;2022-10-16T09:16:53;2.80;;;2.30;;
27313;SDS011;14800;48.174;9.798;2022-10-16T09:19:30;5.32;;;4.90;;
27313;SDS011;14800;48.174;9.798;2022-10-16T09:22:09;5.22;;;4.70;;
27313;SDS011;14800;48.174;9.798;2022-10-16T09:24:39;3.78;;;2.97;;
27313;SDS011;14800;48.174;9.798;2022-10-16T09:27:06;3.30;;;2.42;;
27313;SDS011;14800;48.174;9.798;2022-10-16T09:29:37;3.78;;;2.53;;
27313;SDS011;14800;48.174;9.798;2022-10-16T09:32:13;2.60;;;2.40;;
27313;SDS011;14800;48.174;9.798;2022-10-16T09:34:52;3.13;;;2.83;;
27313;SDS011;14800;48.174;9.798;2022-10-16T09:37:21;2.85;;;1.80;;
27313;SDS011;14800;48.174;9.798;2022-10-16T09:39:49;3.65;;;1.90;;
27313;SDS011;14800;48.174;9.798;2022-10-16T09:42:40;1.50;;;1.40;;
27313;SDS011;14800;48.174;9.798;2022-10-16T09:45:05;1.48;;;1.38;;
27313;SDS011;14800;48.174;9.798;2022-10-16T09:47:44;1.88;;;1.27;;
27313;SDS011;14800;48.174;9.798;2022-10-16T09:50:20;2.65;;;1.10;;
27313;SDS011;14800;48.174;9.798;2022-10-16T09:52:51;1.95;;;0.90;;
27313;SDS011;14800;48.174;9.798;2022-10-16T09:55:36;1.10;;;1.00;;
27313;SDS011;14800;48.174;9.798;2022-10-16T09:58:12;1.27;;;1.00;;
27313;SDS011;14800;48.174;9.798;2022-10-16T10:00:39;4.07;;;1.05;;
27313;SDS011;14800;48.174;9.798;2022-10-16T10:03:10;0.95;;;0.80;;
27313;SDS011;14800;48.174;9.798;2022-10-16T10:05:37;1.55;;;0.93;;
27313;SDS011;14800;48.174;9.798;2022-10-16T10:08:04;2.45;;;0.80;;
27313;SDS011;14800;48.174;9.798;2022-10-16T10:10:32;1.13;;;1.00;;
27313;SDS011;14800;48.174;9.798;2022-10-16T10:13:17;2.40;;;1.15;;
27313;SDS011;14800;48.174;9.798;2022-10-16T10:15:45;1.80;;;1.15;;
27313;SDS011;14800;48.174;9.798;2022-10-16T10:18:15;0.93;;;0.90;;
27313;SDS011;14800;48.174;9.798;2022-10-16T10:20:56;6.82;;;1.38;;
27313;SDS011;14800;48.174;9.798;2022-10-16T10:23:24;2.67;;;0.85;;
27313;SDS011;14800;48.174;9.798;2022-10-16T10:31:39;1.90;;;0.80;;
27313;SDS011;14800;48.174;9.798;2022-10-16T10:37:05;1.50;;;0.90;;
27313;SDS011;14800;48.174;9.798;2022-10-16T10:42:44;3.08;;;0.70;;
27313;SDS011;14800;48.174;9.798;2022-10-16T10:45:22;1.35;;;0.80;;
27313;SDS011;14800;48.174;9.798;2022-10-16T10:53:26;1.45;;;0.80;;
27313;SDS011;14800;48.174;9.798;2022-10-16T10:56:14;0.93;;;0.80;;
27313;SDS011;14800;48.174;9.798;2022-10-16T10:58:57;1.35;;;0.90;;
27313;SDS011;14800;48.174;9.798;2022-10-16T11:06:49;1.05;;;0.70;;
27313;SDS011;14800;48.174;9.798;2022-10-16T11:09:44;1.60;;;0.85;;
27313;SDS011;14800;48.174;9.798;2022-10-16T11:15:54;1.98;;;0.90;;
27313;SDS011;14800;48.174;9.798;2022-10-16T11:18:08;1.20;;;1.10;;
27313;SDS011;14800;48.174;9.798;2022-10-16T11:20:50;2.95;;;0.90;;
27313;SDS011;14800;48.174;9.798;2022-10-16T11:23:33;1.92;;;1.00;;
27313;SDS011;14800;48.174;9.798;2022-10-16T11:26:10;1.80;;;0.80;;
27313;SDS011;14800;48.174;9.798;2022-10-16T11:28:50;2.33;;;0.90;;
27313;SDS011;14800;48.174;9.798;2022-10-16T11:31:37;1.88;;;0.70;;
27313;SDS011;14800;48.174;9.798;2022-10-16T11:34:17;2.20;;;0.70;;
27313;SDS011;14800;48.174;9.798;2022-10-16T11:39:34;1.40;;;0.75;;
27313;SDS011;14800;48.174;9.798;2022-10-16T11:44:57;1.27;;;0.68;;
27313;SDS011;14800;48.174;9.798;2022-10-16T11:55:40;3.45;;;0.60;;
27313;SDS011;14800;48.174;9.798;2022-10-16T11:58:16;2.20;;;0.70;;
27313;SDS011;14800;48.174;9.798;2022-10-16T12:03:41;0.77;;;0.63;;
27313;SDS011;14800;48.174;9.798;2022-10-16T12:09:13;2.42;;;0.80;;
27313;SDS011;14800;48.174;9.798;2022-10-16T12:11:50;0.93;;;0.65;;
27313;SDS011;14800;48.174;9.798;2022-10-16T12:16:54;1.05;;;0.60;;
27313;SDS011;14800;48.174;9.798;2022-10-16T12:19:24;0.82;;;0.82;;
27313;SDS011;14800;48.174;9.798;2022-10-16T12:21:52;0.80;;;0.60;;
27313;SDS011;14800;48.174;9.798;2022-10-16T12:24:36;2.05;;;0.75;;
27313;SDS011;14800;48.174;9.798;2022-10-16T12:27:24;1.73;;;0.73;;
27313;SDS011;14800;48.174;9.798;2022-10-16T12:29:57;1.13;;;0.70;;
27313;SDS011;14800;48.174;9.798;2022-10-16T12:32:37;0.85;;;0.60;;
27313;SDS011;14800;48.174;9.798;2022-10-16T12:35:04;0.57;;;0.50;;
27313;SDS011;14800;48.174;9.798;2022-10-16T12:37:42;2.47;;;0.57;;
27313;SDS011;14800;48.174;9.798;2022-10-16T12:42:49;1.30;;;0.80;;
27313;SDS011;14800;48.174;9.798;2022-10-16T12:45:31;1.10;;;0.90;;
27313;SDS011;14800;48.174;9.798;2022-10-16T12:47:59;0.88;;;0.52;;
27313;SDS011;14800;48.174;9.798;2022-10-16T12:52:58;2.45;;;0.75;;
27313;SDS011;14800;48.174;9.798;2022-10-16T12:55:25;2.40;;;0.80;;
27313;SDS011;14800;48.174;9.798;2022-10-16T13:00:39;0.77;;;0.70;;
27313;SDS011;14800;48.174;9.798;2022-10-16T13:24:48;1.73;;;0.63;;
27313;SDS011;14800;48.174;9.798;2022-10-16T13:29:54;0.73;;;0.60;;
27313;SDS011;14800;48.174;9.798;2022-10-16T13:32:27;0.68;;;0.60;;
27313;SDS011;14800;48.174;9.798;2022-10-16T13:34:54;1.05;;;0.60;;
27313;SDS011;14800;48.174;9.798;2022-10-16T13:37:22;1.73;;;0.50;;
27313;SDS011;14800;48.174;9.798;2022-10-16T13:39:49;1.05;;;0.60;;
27313;SDS011;14800;48.174;9.798;2022-10-16T13:44:52;1.27;;;0.70;;
27313;SDS011;14800;48.174;9.798;2022-10-16T13:50:00;0.65;;;0.50;;
27313;SDS011;14800;48.174;9.798;2022-10-16T13:52:29;1.90;;;0.55;;
27313;SDS011;14800;48.174;9.798;2022-10-16T13:54:55;0.90;;;0.68;;
27313;SDS011;14800;48.174;9.798;2022-10-16T13:57:22;0.60;;;0.55;;
27313;SDS011;14800;48.174;9.798;2022-10-16T13:59:48;2.00;;;0.65;;
27313;SDS011;14800;48.174;9.798;2022-10-16T14:07:17;0.77;;;0.60;;
27313;SDS011;14800;48.174;9.798;2022-10-16T14:10:00;1.40;;;0.50;;
27313;SDS011;14800;48.174;9.798;2022-10-16T14:12:45;1.38;;;0.70;;
27313;SDS011;14800;48.174;9.798;2022-10-16T14:15:18;1.52;;;0.80;;
27313;SDS011;14800;48.174;9.798;2022-10-16T14:17:45;0.70;;;0.52;;
27313;SDS011;14800;48.174;9.798;2022-10-16T14:20:14;0.52;;;0.50;;
27313;SDS011;14800;48.174;9.798;2022-10-16T14:22:41;2.47;;;0.65;;
27313;SDS011;14800;48.174;9.798;2022-10-16T14:27:45;1.75;;;0.80;;
27313;SDS011;14800;48.174;9.798;2022-10-16T14:30:25;3.05;;;0.75;;
27313;SDS011;14800;48.174;9.798;2022-10-16T14:32:56;1.73;;;0.68;;
27313;SDS011;14800;48.174;9.798;2022-10-16T14:35:40;1.83;;;0.85;;
27313;SDS011;14800;48.174;9.798;2022-10-16T14:40:45;0.98;;;0.50;;
27313;SDS011;14800;48.174;9.798;2022-10-16T14:43:55;0.77;;;0.60;;
27313;SDS011;14800;48.174;9.798;2022-10-16T14:46:03;0.77;;;0.50;;
27313;SDS011;14800;48.174;9.798;2022-10-16T14:48:32;0.75;;;0.50;;
27313;SDS011;14800;48.174;9.798;2022-10-16T14:50:58;0.60;;;0.60;;
27313;SDS011;14800;48.174;9.798;2022-10-16T14:53:24;0.85;;;0.52;;
27313;SDS011;14800;48.174;9.798;2022-10-16T14:55:49;1.17;;;0.55;;
27313;SDS011;14800;48.174;9.798;2022-10-16T14:58:21;2.20;;;0.70;;
27313;SDS011;14800;48.174;9.798;2022-10-16T15:00:48;0.40;;;0.40;;
27313;SDS011;14800;48.174;9.798;2022-10-16T15:03:14;1.17;;;0.63;;
27313;SDS011;14800;48.174;9.798;2022-10-16T15:05:40;0.85;;;0.70;;
27313;SDS011;14800;48.174;9.798;2022-10-16T15:08:06;2.28;;;0.73;;
27313;SDS011;14800;48.174;9.798;2022-10-16T15:10:33;2.05;;;0.60;;
27313;SDS011;14800;48.174;9.798;2022-10-16T15:13:03;1.00;;;0.70;;
27313;SDS011;14800;48.174;9.798;2022-10-16T15:17:59;0.60;;;0.60;;
27313;SDS011;14800;48.174;9.798;2022-10-16T15:20:26;0.82;;;0.70;;
27313;SDS011;14800;48.174;9.798;2022-10-16T15:22:55;2.78;;;0.63;;
27313;SDS011;14800;48.174;9.798;2022-10-16T15:28:20;1.23;;;0.68;;
27313;SDS011;14800;48.174;9.798;2022-10-16T15:30:48;4.32;;;0.70;;
27313;SDS011;14800;48.174;9.798;2022-10-16T15:33:16;4.00;;;0.60;;
27313;SDS011;14800;48.174;9.798;2022-10-16T15:35:46;0.70;;;0.70;;
27313;SDS011;14800;48.174;9.798;2022-10-16T15:38:13;1.02;;;0.50;;
27313;SDS011;14800;48.174;9.798;2022-10-16T15:40:40;0.80;;;0.70;;
27313;SDS011;14800;48.174;9.798;2022-10-16T15:43:06;1.48;;;0.68;;
27313;SDS011;14800;48.174;9.798;2022-10-16T15:45:32;1.08;;;0.60;;
27313;SDS011;14800;48.174;9.798;2022-10-16T15:47:57;0.70;;;0.70;;
27313;SDS011;14800;48.174;9.798;2022-10-16T15:50:23;1.73;;;0.70;;
27313;SDS011;14800;48.174;9.798;2022-10-16T15:52:49;1.25;;;0.50;;
27313;SDS011;14800;48.174;9.798;2022-10-16T15:55:15;1.17;;;0.57;;
27313;SDS011;14800;48.174;9.798;2022-10-16T15:57:42;0.60;;;0.60;;
27313;SDS011;14800;48.174;9.798;2022-10-16T16:00:12;2.60;;;0.70;;
27313;SDS011;14800;48.174;9.798;2022-10-16T16:02:39;2.33;;;0.73;;
27313;SDS011;14800;48.174;9.798;2022-10-16T16:05:06;1.60;;;0.65;;
27313;SDS011;14800;48.174;9.798;2022-10-16T16:07:33;1.98;;;0.82;;
27313;SDS011;14800;48.174;9.798;2022-10-16T16:10:00;2.45;;;0.93;;
27313;SDS011;14800;48.174;9.798;2022-10-16T16:12:26;1.48;;;0.95;;
27313;SDS011;14800;48.174;9.798;2022-10-16T16:14:51;1.27;;;0.93;;
27313;SDS011;14800;48.174;9.798;2022-10-16T16:17:17;1.92;;;1.00;;
27313;SDS011;14800;48.174;9.798;2022-10-16T16:19:43;2.33;;;1.10;;
27313;SDS011;14800;48.174;9.798;2022-10-16T16:22:08;3.00;;;1.40;;
27313;SDS011;14800;48.174;9.798;2022-10-16T16:24:34;2.55;;;1.00;;
27313;SDS011;14800;48.174;9.798;2022-10-16T16:26:59;1.83;;;1.50;;
27313;SDS011;14800;48.174;9.798;2022-10-16T16:29:25;1.35;;;1.23;;
27313;SDS011;14800;48.174;9.798;2022-10-16T16:31:51;2.10;;;1.13;;
27313;SDS011;14800;48.174;9.798;2022-10-16T16:34:22;1.30;;;1.20;;
27313;SDS011;14800;48.174;9.798;2022-10-16T16:36:52;2.42;;;1.20;;
27313;SDS011;14800;48.174;9.798;2022-10-16T16:39:18;1.10;;;1.00;;
27313;SDS011;14800;48.174;9.798;2022-10-16T16:41:44;1.00;;;1.00;;
27313;SDS011;14800;48.174;9.798;2022-10-16T16:44:13;2.47;;;1.00;;
27313;SDS011;14800;48.174;9.798;2022-10-16T16:46:40;3.28;;;1.10;;
27313;SDS011;14800;48.174;9.798;2022-10-16T16:49:08;1.33;;;1.00;;
27313;SDS011;14800;48.174;9.798;2022-10-16T16:51:38;4.47;;;1.10;;
27313;SDS011;14800;48.174;9.798;2022-10-16T16:54:04;1.98;;;1.30;;
27313;SDS011;14800;48.174;9.798;2022-10-16T16:56:30;3.35;;;1.08;;
27313;SDS011;14800;48.174;9.798;2022-10-16T16:58:56;1.30;;;1.20;;
27313;SDS011;14800;48.174;9.798;2022-10-16T17:01:22;1.45;;;1.35;;
27313;SDS011;14800;48.174;9.798;2022-10-16T17:03:51;1.63;;;1.30;;
27313;SDS011;14800;48.174;9.798;2022-10-16T17:06:22;1.52;;;1.40;;
27313;SDS011;14800;48.174;9.798;2022-10-16T17:08:49;3.92;;;1.75;;
27313;SDS011;14800;48.174;9.798;2022-10-16T17:11:22;3.63;;;2.33;;
27313;SDS011;14800;48.174;9.798;2022-10-16T17:13:50;5.13;;;2.67;;
27313;SDS011;14800;48.174;9.798;2022-10-16T17:16:17;7.15;;;2.97;;